sensor_id;sensor_type;location;lat;lon;timestamp;pressure;altitude;pressure_sealevel;temperature;humidity
20955;BME280;10636;19.390;-99.256;2023-05-08T00:01:01;77860.03;;;27.50;25.73
20955;BME280;10636;19.390;-99.256;2023-05-08T00:03:30;77868.75;;;27.48;26.35
20955;BME280;10636;19.390;-99.256;2023-05-08T00:05:58;77884.09;;;27.44;26.43
20955;BME280;10636;19.390;-99.256;2023-05-08T00:08:29;77911.16;;;27.48;26.70
20955;BME280;10636;19.390;-99.256;2023-05-08T00:10:57;77916.34;;;27.42;26.80
20955;BME280;10636;19.390;-99.256;2023-05-08T00:13:25;77919.75;;;27.42;27.14
20955;BME280;10636;19.390;-99.256;2023-05-08T00:15:54;77932.50;;;27.42;27.21
20955;BME280;10636;19.390;-99.256;2023-05-08T00:18:23;77918.38;;;27.19;27.07
20955;BME280;10636;19.390;-99.256;2023-05-08T00:20:52;77944.19;;;27.26;27.54
20955;BME280;10636;19.390;-99.256;2023-05-08T00:23:20;77954.47;;;27.32;28.53
20955;BME280;10636;19.390;-99.256;2023-05-08T00:25:50;77973.81;;;27.26;28.58
20955;BME280;10636;19.390;-99.256;2023-05-08T00:28:20;77964.84;;;27.20;29.06
20955;BME280;10636;19.390;-99.256;2023-05-08T00:30:48;77980.91;;;27.16;29.02
20955;BME280;10636;19.390;-99.256;2023-05-08T00:33:17;78003.03;;;27.14;29.56
20955;BME280;10636;19.390;-99.256;2023-05-08T00:35:46;78005.59;;;27.10;29.56
20955;BME280;10636;19.390;-99.256;2023-05-08T00:38:15;78006.38;;;26.93;29.70
20955;BME280;10636;19.390;-99.256;2023-05-08T00:40:44;78022.84;;;27.03;30.41
20955;BME280;10636;19.390;-99.256;2023-05-08T00:43:14;78017.97;;;26.97;31.22
20955;BME280;10636;19.390;-99.256;2023-05-08T00:45:43;78015.81;;;26.94;31.50
20955;BME280;10636;19.390;-99.256;2023-05-08T00:48:11;78041.31;;;26.91;31.66
20955;BME280;10636;19.390;-99.256;2023-05-08T00:50:40;78038.47;;;26.87;32.05
20955;BME280;10636;19.390;-99.256;2023-05-08T00:53:09;78055.84;;;26.83;32.06
20955;BME280;10636;19.390;-99.256;2023-05-08T00:55:39;78056.00;;;26.68;32.21
20955;BME280;10636;19.390;-99.256;2023-05-08T00:58:07;78044.00;;;26.51;32.27
20955;BME280;10636;19.390;-99.256;2023-05-08T01:00:38;78079.53;;;26.67;32.31
20955;BME280;10636;19.390;-99.256;2023-05-08T01:03:08;78090.78;;;26.62;32.62
20955;BME280;10636;19.390;-99.256;2023-05-08T01:05:37;78087.03;;;26.51;32.61
20955;BME280;10636;19.390;-99.256;2023-05-08T01:08:07;78100.69;;;26.57;32.79
20955;BME280;10636;19.390;-99.256;2023-05-08T01:10:47;78100.00;;;26.56;32.79
20955;BME280;10636;19.390;-99.256;2023-05-08T01:13:23;78108.66;;;26.53;33.02
20955;BME280;10636;19.390;-99.256;2023-05-08T01:16:14;78105.81;;;26.49;32.47
20955;BME280;10636;19.390;-99.256;2023-05-08T01:18:54;78113.72;;;26.45;32.66
20955;BME280;10636;19.390;-99.256;2023-05-08T01:21:30;78113.66;;;26.43;32.54
20955;BME280;10636;19.390;-99.256;2023-05-08T01:27:40;78102.72;;;26.39;32.34
20955;BME280;10636;19.390;-99.256;2023-05-08T01:30:58;78108.50;;;26.31;32.27
20955;BME280;10636;19.390;-99.256;2023-05-08T01:33:34;78128.63;;;26.30;31.86
20955;BME280;10636;19.390;-99.256;2023-05-08T01:36:16;78134.56;;;26.26;32.11
20955;BME280;10636;19.390;-99.256;2023-05-08T01:38:54;78132.47;;;26.25;32.08
20955;BME280;10636;19.390;-99.256;2023-05-08T01:41:26;78107.47;;;26.02;32.00
20955;BME280;10636;19.390;-99.256;2023-05-08T01:44:05;78132.63;;;26.29;31.63
20955;BME280;10636;19.390;-99.256;2023-05-08T01:46:38;78121.34;;;26.32;31.54
20955;BME280;10636;19.390;-99.256;2023-05-08T01:49:09;78109.13;;;26.29;31.48
20955;BME280;10636;19.390;-99.256;2023-05-08T01:51:43;78096.84;;;26.24;31.50
20955;BME280;10636;19.390;-99.256;2023-05-08T01:54:15;78103.97;;;26.36;31.53
20955;BME280;10636;19.390;-99.256;2023-05-08T01:56:48;78101.28;;;26.36;31.17
20955;BME280;10636;19.390;-99.256;2023-05-08T01:59:38;78093.19;;;26.36;31.21
20955;BME280;10636;19.390;-99.256;2023-05-08T02:02:08;78105.22;;;26.32;31.25
20955;BME280;10636;19.390;-99.256;2023-05-08T02:04:40;78128.09;;;26.33;31.22
20955;BME280;10636;19.390;-99.256;2023-05-08T02:07:10;78152.22;;;26.31;31.54
20955;BME280;10636;19.390;-99.256;2023-05-08T02:09:40;78159.00;;;26.32;31.28
20955;BME280;10636;19.390;-99.256;2023-05-08T02:12:11;78179.25;;;26.36;31.42
20955;BME280;10636;19.390;-99.256;2023-05-08T02:14:41;78181.88;;;26.33;31.55
20955;BME280;10636;19.390;-99.256;2023-05-08T02:17:13;78182.56;;;26.34;31.39
20955;BME280;10636;19.390;-99.256;2023-05-08T02:19:44;78195.38;;;26.36;31.77
20955;BME280;10636;19.390;-99.256;2023-05-08T02:22:13;78147.09;;;26.02;31.81
20955;BME280;10636;19.390;-99.256;2023-05-08T02:24:44;78183.25;;;26.34;31.63
20955;BME280;10636;19.390;-99.256;2023-05-08T02:27:14;78186.03;;;26.37;31.92
20955;BME280;10636;19.390;-99.256;2023-05-08T02:29:43;78183.25;;;26.34;31.66
20955;BME280;10636;19.390;-99.256;2023-05-08T02:32:12;78181.19;;;26.33;31.69
20955;BME280;10636;19.390;-99.256;2023-05-08T02:34:43;78190.16;;;26.40;31.93
20955;BME280;10636;19.390;-99.256;2023-05-08T02:37:14;78198.22;;;26.40;31.97
20955;BME280;10636;19.390;-99.256;2023-05-08T02:39:51;78192.78;;;26.38;32.09
20955;BME280;10636;19.390;-99.256;2023-05-08T02:42:35;78203.53;;;26.38;32.10
20955;BME280;10636;19.390;-99.256;2023-05-08T02:45:04;78214.22;;;26.36;32.32
20955;BME280;10636;19.390;-99.256;2023-05-08T02:47:53;78213.91;;;26.27;32.00
20955;BME280;10636;19.390;-99.256;2023-05-08T02:50:39;78218.59;;;26.27;32.46
20955;BME280;10636;19.390;-99.256;2023-05-08T02:53:17;78229.28;;;26.25;32.34
20955;BME280;10636;19.390;-99.256;2023-05-08T02:56:03;78223.13;;;26.22;32.62
20955;BME280;10636;19.390;-99.256;2023-05-08T02:58:39;78233.78;;;26.20;32.39
20955;BME280;10636;19.390;-99.256;2023-05-08T03:01:18;78242.47;;;26.19;32.44
20955;BME280;10636;19.390;-99.256;2023-05-08T03:04:03;78242.41;;;26.17;32.49
20955;BME280;10636;19.390;-99.256;2023-05-08T03:06:45;78248.38;;;26.15;32.54
20955;BME280;10636;19.390;-99.256;2023-05-08T03:09:23;78249.69;;;26.14;32.57
20955;BME280;10636;19.390;-99.256;2023-05-08T03:12:02;78264.44;;;26.13;32.80
20955;BME280;10636;19.390;-99.256;2023-05-08T03:14:43;78277.72;;;26.09;32.86
20955;BME280;10636;19.390;-99.256;2023-05-08T03:17:26;78277.59;;;26.05;32.93
20955;BME280;10636;19.390;-99.256;2023-05-08T03:20:02;78285.66;;;26.05;33.02
20955;BME280;10636;19.390;-99.256;2023-05-08T03:22:35;78281.56;;;26.04;32.76
20955;BME280;10636;19.390;-99.256;2023-05-08T03:25:06;78282.88;;;26.03;33.00
20955;BME280;10636;19.390;-99.256;2023-05-08T03:27:36;78276.19;;;26.04;32.76
20955;BME280;10636;19.390;-99.256;2023-05-08T03:30:08;78279.56;;;26.04;33.14
20955;BME280;10636;19.390;-99.256;2023-05-08T03:32:38;78285.03;;;26.06;33.08
20955;BME280;10636;19.390;-99.256;2023-05-08T03:35:08;78278.97;;;26.06;33.09
20955;BME280;10636;19.390;-99.256;2023-05-08T03:37:38;78271.34;;;26.00;33.21
20955;BME280;10636;19.390;-99.256;2023-05-08T03:40:09;78267.53;;;26.05;32.68
20955;BME280;10636;19.390;-99.256;2023-05-08T03:42:37;78273.50;;;26.04;33.19
20955;BME280;10636;19.390;-99.256;2023-05-08T03:45:09;78281.66;;;26.06;33.09
20955;BME280;10636;19.390;-99.256;2023-05-08T03:47:38;78269.44;;;26.03;32.78
20955;BME280;10636;19.390;-99.256;2023-05-08T03:50:37;78262.06;;;26.03;32.97
20955;BME280;10636;19.390;-99.256;2023-05-08T03:53:08;78244.84;;;25.93;32.85
20955;BME280;10636;19.390;-99.256;2023-05-08T03:55:38;78250.38;;;25.97;33.32
20955;BME280;10636;19.390;-99.256;2023-05-08T03:58:19;78258.50;;;25.99;32.76
20955;BME280;10636;19.390;-99.256;2023-05-08T04:01:10;78255.59;;;25.93;33.14
20955;BME280;10636;19.390;-99.256;2023-05-08T04:04:14;78255.75;;;25.97;33.29
20955;BME280;10636;19.390;-99.256;2023-05-08T04:06:53;78253.69;;;25.95;33.11
20955;BME280;10636;19.390;-99.256;2023-05-08T04:09:35;78248.09;;;25.89;33.37
20955;BME280;10636;19.390;-99.256;2023-05-08T04:12:14;78254.28;;;25.94;33.37
20955;BME280;10636;19.390;-99.256;2023-05-08T04:14:59;78261.88;;;25.99;33.31
20955;BME280;10636;19.390;-99.256;2023-05-08T04:17:41;78256.50;;;25.99;33.38
20955;BME280;10636;19.390;-99.256;2023-05-08T04:20:28;78234.94;;;25.79;33.45
20955;BME280;10636;19.390;-99.256;2023-05-08T04:22:58;78254.28;;;25.94;33.59
20955;BME280;10636;19.390;-99.256;2023-05-08T04:25:31;78269.44;;;26.03;33.61
20955;BME280;10636;19.390;-99.256;2023-05-08T04:28:03;78266.75;;;26.03;33.15
20955;BME280;10636;19.390;-99.256;2023-05-08T04:30:33;78260.06;;;26.04;33.41
20955;BME280;10636;19.390;-99.256;2023-05-08T04:33:14;78256.09;;;26.05;33.63
20955;BME280;10636;19.390;-99.256;2023-05-08T04:35:46;78256.69;;;26.03;33.62
20955;BME280;10636;19.390;-99.256;2023-05-08T04:38:15;78258.84;;;26.07;33.48
20955;BME280;10636;19.390;-99.256;2023-05-08T04:40:45;78245.00;;;25.97;33.41
20955;BME280;10636;19.390;-99.256;2023-05-08T04:43:14;78243.06;;;25.99;33.73
20955;BME280;10636;19.390;-99.256;2023-05-08T04:45:42;78262.28;;;26.10;33.94
20955;BME280;10636;19.390;-99.256;2023-05-08T04:48:15;78255.53;;;26.08;33.77
20955;BME280;10636;19.390;-99.256;2023-05-08T04:50:48;78250.16;;;26.08;33.52
20955;BME280;10636;19.390;-99.256;2023-05-08T04:53:17;78258.31;;;26.11;33.73
20955;BME280;10636;19.390;-99.256;2023-05-08T04:55:47;78249.63;;;26.12;33.89
20955;BME280;10636;19.390;-99.256;2023-05-08T04:58:15;78251.00;;;26.13;33.61
20955;BME280;10636;19.390;-99.256;2023-05-08T05:00:44;78249.56;;;26.10;33.83
20955;BME280;10636;19.390;-99.256;2023-05-08T05:03:12;78260.38;;;26.12;33.45
20955;BME280;10636;19.390;-99.256;2023-05-08T05:05:41;78242.56;;;26.03;34.02
20955;BME280;10636;19.390;-99.256;2023-05-08T05:08:09;78248.16;;;26.09;33.64
20955;BME280;10636;19.390;-99.256;2023-05-08T05:10:47;78238.81;;;26.10;33.59
20955;BME280;10636;19.390;-99.256;2023-05-08T05:13:21;78233.19;;;26.04;33.62
20955;BME280;10636;19.390;-99.256;2023-05-08T05:15:54;78243.56;;;26.12;33.46
20955;BME280;10636;19.390;-99.256;2023-05-08T05:18:29;78248.31;;;26.13;33.66
20955;BME280;10636;19.390;-99.256;2023-05-08T05:21:20;78245.63;;;26.13;33.59
20955;BME280;10636;19.390;-99.256;2023-05-08T05:23:51;78196.03;;;25.80;33.69
20955;BME280;10636;19.390;-99.256;2023-05-08T05:26:27;78230.88;;;26.14;33.88
20955;BME280;10636;19.390;-99.256;2023-05-08T05:28:55;78217.16;;;26.06;33.74
20955;BME280;10636;19.390;-99.256;2023-05-08T05:31:40;78230.88;;;26.14;33.59
20955;BME280;10636;19.390;-99.256;2023-05-08T05:34:13;78237.56;;;26.13;33.48
20955;BME280;10636;19.390;-99.256;2023-05-08T05:36:41;78239.56;;;26.13;33.45
20955;BME280;10636;19.390;-99.256;2023-05-08T05:39:11;78229.44;;;26.11;33.44
20955;BME280;10636;19.390;-99.256;2023-05-08T05:41:42;78217.38;;;26.12;33.61
20955;BME280;10636;19.390;-99.256;2023-05-08T05:44:20;78216.69;;;26.12;33.77
20955;BME280;10636;19.390;-99.256;2023-05-08T05:46:48;78205.25;;;26.11;33.67
20955;BME280;10636;19.390;-99.256;2023-05-08T05:49:17;78203.88;;;26.10;33.48
20955;BME280;10636;19.390;-99.256;2023-05-08T05:51:45;78199.78;;;26.09;33.59
20955;BME280;10636;19.390;-99.256;2023-05-08T05:54:14;78192.50;;;26.12;33.65
20955;BME280;10636;19.390;-99.256;2023-05-08T05:56:44;78186.44;;;26.11;33.36
20955;BME280;10636;19.390;-99.256;2023-05-08T05:59:13;78179.69;;;26.10;33.49
20955;BME280;10636;19.390;-99.256;2023-05-08T06:01:42;78170.22;;;26.09;33.56
20955;BME280;10636;19.390;-99.256;2023-05-08T06:04:11;78170.91;;;26.10;33.49
20955;BME280;10636;19.390;-99.256;2023-05-08T06:06:39;78170.22;;;26.09;33.35
20955;BME280;10636;19.390;-99.256;2023-05-08T06:09:08;78169.53;;;26.08;33.52
20955;BME280;10636;19.390;-99.256;2023-05-08T06:11:36;78166.16;;;26.08;33.50
20955;BME280;10636;19.390;-99.256;2023-05-08T06:14:12;78158.09;;;26.08;33.20
20955;BME280;10636;19.390;-99.256;2023-05-08T06:16:49;78119.31;;;25.77;33.53
20955;BME280;10636;19.390;-99.256;2023-05-08T06:19:18;78155.34;;;26.06;33.31
20955;BME280;10636;19.390;-99.256;2023-05-08T06:21:51;78144.50;;;26.04;33.38
20955;BME280;10636;19.390;-99.256;2023-05-08T06:24:19;78139.91;;;26.06;33.26
20955;BME280;10636;19.390;-99.256;2023-05-08T06:26:48;78136.53;;;26.06;33.45
20955;BME280;10636;19.390;-99.256;2023-05-08T06:29:18;78135.06;;;26.03;33.32
20955;BME280;10636;19.390;-99.256;2023-05-08T06:31:47;78131.75;;;26.04;33.40
20955;BME280;10636;19.390;-99.256;2023-05-08T06:34:16;78124.31;;;26.03;33.46
20955;BME280;10636;19.390;-99.256;2023-05-08T06:36:48;78120.31;;;26.04;33.49
20955;BME280;10636;19.390;-99.256;2023-05-08T06:39:19;78104.81;;;25.85;33.51
20955;BME280;10636;19.390;-99.256;2023-05-08T06:41:48;78070.44;;;25.63;33.65
20955;BME280;10636;19.390;-99.256;2023-05-08T06:44:20;78117.56;;;26.02;33.32
20955;BME280;10636;19.390;-99.256;2023-05-08T06:46:57;78103.81;;;25.94;33.48
20955;BME280;10636;19.390;-99.256;2023-05-08T06:49:47;78102.59;;;25.97;33.47
20955;BME280;10636;19.390;-99.256;2023-05-08T06:52:26;78103.06;;;25.91;33.57
20955;BME280;10636;19.390;-99.256;2023-05-08T06:54:54;78105.13;;;25.93;33.27
20955;BME280;10636;19.390;-99.256;2023-05-08T06:57:23;78109.28;;;25.96;33.20
20955;BME280;10636;19.390;-99.256;2023-05-08T06:59:54;78106.50;;;25.94;33.42
20955;BME280;10636;19.390;-99.256;2023-05-08T07:02:24;78109.28;;;25.96;33.29
20955;BME280;10636;19.390;-99.256;2023-05-08T07:04:52;78097.84;;;25.95;33.48
20955;BME280;10636;19.390;-99.256;2023-05-08T07:07:23;78080.66;;;25.85;33.26
20955;BME280;10636;19.390;-99.256;2023-05-08T07:09:56;78084.31;;;25.93;33.08
20955;BME280;10636;19.390;-99.256;2023-05-08T07:12:28;78078.25;;;25.93;33.40
20955;BME280;10636;19.390;-99.256;2023-05-08T07:15:03;78072.19;;;25.92;33.20
20955;BME280;10636;19.390;-99.256;2023-05-08T07:17:32;78070.75;;;25.89;33.17
20955;BME280;10636;19.390;-99.256;2023-05-08T07:20:03;78079.56;;;25.92;33.42
20955;BME280;10636;19.390;-99.256;2023-05-08T07:22:38;78072.19;;;25.92;33.29
20955;BME280;10636;19.390;-99.256;2023-05-08T07:25:14;78072.88;;;25.93;33.71
20955;BME280;10636;19.390;-99.256;2023-05-08T07:27:43;78066.13;;;25.92;33.62
20955;BME280;10636;19.390;-99.256;2023-05-08T07:30:19;78066.13;;;25.92;33.29
20955;BME280;10636;19.390;-99.256;2023-05-08T07:32:47;78060.75;;;25.92;33.47
20955;BME280;10636;19.390;-99.256;2023-05-08T07:35:15;78054.00;;;25.91;33.51
20955;BME280;10636;19.390;-99.256;2023-05-08T07:37:45;78064.06;;;25.90;33.26
20955;BME280;10636;19.390;-99.256;2023-05-08T07:40:13;78068.06;;;25.89;33.26
20955;BME280;10636;19.390;-99.256;2023-05-08T07:42:42;78063.28;;;25.88;33.27
20955;BME280;10636;19.390;-99.256;2023-05-08T07:45:13;78061.28;;;25.88;33.57
20955;BME280;10636;19.390;-99.256;2023-05-08T07:47:48;78060.53;;;25.86;33.53
20955;BME280;10636;19.390;-99.256;2023-05-08T07:50:17;78056.53;;;25.87;33.70
20955;BME280;10636;19.390;-99.256;2023-05-08T07:52:46;78057.91;;;25.88;33.36
20955;BME280;10636;19.390;-99.256;2023-05-08T07:55:14;78059.22;;;25.87;33.54
20955;BME280;10636;19.390;-99.256;2023-05-08T07:57:43;78035.75;;;25.69;33.38
20955;BME280;10636;19.390;-99.256;2023-05-08T08:00:14;78052.47;;;25.86;33.64
20955;BME280;10636;19.390;-99.256;2023-05-08T08:02:43;78051.78;;;25.85;33.53
20955;BME280;10636;19.390;-99.256;2023-05-08T08:05:27;78041.72;;;25.86;33.67
20955;BME280;10636;19.390;-99.256;2023-05-08T08:07:55;78037.66;;;25.85;33.39
20955;BME280;10636;19.390;-99.256;2023-05-08T08:10:29;78023.44;;;25.82;33.73
20955;BME280;10636;19.390;-99.256;2023-05-08T08:12:59;78022.06;;;25.81;33.67
20955;BME280;10636;19.390;-99.256;2023-05-08T08:15:29;78025.44;;;25.81;33.75
20955;BME280;10636;19.390;-99.256;2023-05-08T08:17:57;78014.41;;;25.73;33.50
20955;BME280;10636;19.390;-99.256;2023-05-08T08:20:35;78026.69;;;25.78;33.51
20955;BME280;10636;19.390;-99.256;2023-05-08T08:23:04;78015.63;;;25.70;33.33
20955;BME280;10636;19.390;-99.256;2023-05-08T08:25:33;78030.75;;;25.79;33.38
20955;BME280;10636;19.390;-99.256;2023-05-08T08:28:01;78026.69;;;25.78;33.61
20955;BME280;10636;19.390;-99.256;2023-05-08T08:30:31;78009.41;;;25.66;33.12
20955;BME280;10636;19.390;-99.256;2023-05-08T08:33:00;78011.13;;;25.75;33.51
20955;BME280;10636;19.390;-99.256;2023-05-08T08:35:28;78011.34;;;25.63;33.54
20955;BME280;10636;19.390;-99.256;2023-05-08T08:37:57;78017.19;;;25.75;33.02
20955;BME280;10636;19.390;-99.256;2023-05-08T08:40:27;78002.19;;;25.70;33.24
20955;BME280;10636;19.390;-99.256;2023-05-08T08:43:04;78004.94;;;25.72;33.35
20955;BME280;10636;19.390;-99.256;2023-05-08T08:45:35;78000.19;;;25.71;33.59
20955;BME280;10636;19.390;-99.256;2023-05-08T08:48:05;78000.88;;;25.71;33.37
20955;BME280;10636;19.390;-99.256;2023-05-08T08:50:41;77990.56;;;25.64;33.71
20955;BME280;10636;19.390;-99.256;2023-05-08T08:53:12;77994.13;;;25.70;33.38
20955;BME280;10636;19.390;-99.256;2023-05-08T08:55:45;77993.31;;;25.66;33.39
20955;BME280;10636;19.390;-99.256;2023-05-08T08:58:20;77993.84;;;25.62;33.75
20955;BME280;10636;19.390;-99.256;2023-05-08T09:01:00;77989.31;;;25.67;33.37
20955;BME280;10636;19.390;-99.256;2023-05-08T09:03:31;77997.28;;;25.65;33.63
20955;BME280;10636;19.390;-99.256;2023-05-08T09:06:00;78003.97;;;25.64;33.59
20955;BME280;10636;19.390;-99.256;2023-05-08T09:08:29;78013.94;;;25.61;33.51
20955;BME280;10636;19.390;-99.256;2023-05-08T09:10:58;78001.69;;;25.56;33.69
20955;BME280;10636;19.390;-99.256;2023-05-08T09:13:31;78009.88;;;25.60;33.58
20955;BME280;10636;19.390;-99.256;2023-05-08T09:16:01;78004.97;;;25.54;33.59
20955;BME280;10636;19.390;-99.256;2023-05-08T09:18:38;78012.50;;;25.58;33.64
20955;BME280;10636;19.390;-99.256;2023-05-08T09:21:08;78012.50;;;25.58;33.61
20955;BME280;10636;19.390;-99.256;2023-05-08T09:23:36;78020.56;;;25.58;33.46
20955;BME280;10636;19.390;-99.256;2023-05-08T09:26:28;78011.72;;;25.55;33.58
20955;BME280;10636;19.390;-99.256;2023-05-08T09:29:11;78013.78;;;25.57;33.89
20955;BME280;10636;19.390;-99.256;2023-05-08T09:31:43;78017.78;;;25.56;33.98
20955;BME280;10636;19.390;-99.256;2023-05-08T09:34:22;78016.25;;;25.51;33.64
20955;BME280;10636;19.390;-99.256;2023-05-08T09:36:52;78025.09;;;25.53;33.85
20955;BME280;10636;19.390;-99.256;2023-05-08T09:39:30;78031.84;;;25.54;33.85
20955;BME280;10636;19.390;-99.256;2023-05-08T09:42:00;78031.16;;;25.54;33.88
20955;BME280;10636;19.390;-99.256;2023-05-08T09:44:45;78027.00;;;25.51;33.56
20955;BME280;10636;19.390;-99.256;2023-05-08T09:47:17;78040.59;;;25.55;33.86
20955;BME280;10636;19.390;-99.256;2023-05-08T09:49:58;78039.84;;;25.52;34.06
20955;BME280;10636;19.390;-99.256;2023-05-08T09:52:36;78053.16;;;25.50;34.13
20955;BME280;10636;19.390;-99.256;2023-05-08T09:55:26;78020.34;;;25.16;33.85
20955;BME280;10636;19.390;-99.256;2023-05-08T09:57:56;78073.97;;;25.50;33.74
20955;BME280;10636;19.390;-99.256;2023-05-08T10:00:26;78040.59;;;25.19;34.14
20955;BME280;10636;19.390;-99.256;2023-05-08T10:03:01;78085.31;;;25.48;33.70
20955;BME280;10636;19.390;-99.256;2023-05-08T10:05:31;78090.06;;;25.50;33.76
20955;BME280;10636;19.390;-99.256;2023-05-08T10:08:20;78094.06;;;25.49;33.90
20955;BME280;10636;19.390;-99.256;2023-05-08T10:10:49;78099.38;;;25.47;33.72
20955;BME280;10636;19.390;-99.256;2023-05-08T10:13:17;78085.94;;;25.47;33.70
20955;BME280;10636;19.390;-99.256;2023-05-08T10:15:49;78086.31;;;25.39;33.78
20955;BME280;10636;19.390;-99.256;2023-05-08T10:18:32;78089.22;;;25.45;34.05
20955;BME280;10636;19.390;-99.256;2023-05-08T10:21:05;78095.97;;;25.46;34.03
20955;BME280;10636;19.390;-99.256;2023-05-08T10:23:36;78101.97;;;25.45;34.05
20955;BME280;10636;19.390;-99.256;2023-05-08T10:26:07;78116.75;;;25.46;33.94
20955;BME280;10636;19.390;-99.256;2023-05-08T10:28:45;78116.63;;;25.42;33.72
20955;BME280;10636;19.390;-99.256;2023-05-08T10:31:26;78123.38;;;25.43;33.92
20955;BME280;10636;19.390;-99.256;2023-05-08T10:34:01;78117.91;;;25.41;33.80
20955;BME280;10636;19.390;-99.256;2023-05-08T10:36:34;78115.78;;;25.37;33.95
20955;BME280;10636;19.390;-99.256;2023-05-08T10:39:04;78125.28;;;25.40;34.08
20955;BME280;10636;19.390;-99.256;2023-05-08T10:41:36;78133.31;;;25.40;33.97
20955;BME280;10636;19.390;-99.256;2023-05-08T10:44:18;78112.00;;;25.26;33.66
20955;BME280;10636;19.390;-99.256;2023-05-08T10:46:53;78133.94;;;25.39;33.98
20955;BME280;10636;19.390;-99.256;2023-05-08T10:49:37;78131.19;;;25.37;34.15
20955;BME280;10636;19.390;-99.256;2023-05-08T10:52:14;78135.84;;;25.36;33.94
20955;BME280;10636;19.390;-99.256;2023-05-08T10:54:58;78118.75;;;25.27;34.26
20955;BME280;10636;19.390;-99.256;2023-05-08T10:57:37;78145.06;;;25.31;34.02
20955;BME280;10636;19.390;-99.256;2023-05-08T11:00:08;78150.50;;;25.33;34.04
20955;BME280;10636;19.390;-99.256;2023-05-08T11:03:06;78155.19;;;25.33;34.09
20955;BME280;10636;19.390;-99.256;2023-05-08T11:05:50;78157.88;;;25.33;34.46
20955;BME280;10636;19.390;-99.256;2023-05-08T11:08:20;78155.19;;;25.33;33.86
20955;BME280;10636;19.390;-99.256;2023-05-08T11:11:03;78155.09;;;25.30;33.79
20955;BME280;10636;19.390;-99.256;2023-05-08T11:13:51;78157.19;;;25.32;34.11
20955;BME280;10636;19.390;-99.256;2023-05-08T11:19:29;78158.91;;;25.25;34.22
20955;BME280;10636;19.390;-99.256;2023-05-08T11:22:24;78171.13;;;25.28;34.41
20955;BME280;10636;19.390;-99.256;2023-05-08T11:25:05;78181.88;;;25.28;34.12
20955;BME280;10636;19.390;-99.256;2023-05-08T11:30:28;78180.41;;;25.25;34.44
20955;BME280;10636;19.390;-99.256;2023-05-08T11:33:16;78187.06;;;25.24;34.36
20955;BME280;10636;19.390;-99.256;2023-05-08T11:35:52;78185.75;;;25.25;34.10
20955;BME280;10636;19.390;-99.256;2023-05-08T11:38:41;78190.44;;;25.25;34.06
20955;BME280;10636;19.390;-99.256;2023-05-08T11:41:27;78194.53;;;25.26;34.29
20955;BME280;10636;19.390;-99.256;2023-05-08T11:44:17;78191.06;;;25.23;34.31
20955;BME280;10636;19.390;-99.256;2023-05-08T11:46:50;78192.38;;;25.22;34.28
20955;BME280;10636;19.390;-99.256;2023-05-08T11:49:21;78190.81;;;25.17;33.85
20955;BME280;10636;19.390;-99.256;2023-05-08T11:51:51;78199.03;;;25.21;34.55
20955;BME280;10636;19.390;-99.256;2023-05-08T11:54:22;78194.94;;;25.20;34.24
20955;BME280;10636;19.390;-99.256;2023-05-08T11:56:52;78201.03;;;25.21;34.24
20955;BME280;10636;19.390;-99.256;2023-05-08T11:59:21;78203.63;;;25.19;34.31
20955;BME280;10636;19.390;-99.256;2023-05-08T12:02:17;78204.06;;;25.13;34.21
20955;BME280;10636;19.390;-99.256;2023-05-08T12:04:45;78208.31;;;25.18;34.58
20955;BME280;10636;19.390;-99.256;2023-05-08T12:07:14;78205.00;;;25.20;34.64
20955;BME280;10636;19.390;-99.256;2023-05-08T12:09:45;78200.94;;;25.19;34.79
20955;BME280;10636;19.390;-99.256;2023-05-08T12:12:36;78215.03;;;25.19;34.85
20955;BME280;10636;19.390;-99.256;2023-05-08T12:15:12;78206.31;;;25.19;34.67
20955;BME280;10636;19.390;-99.256;2023-05-08T12:17:41;78217.84;;;25.21;34.68
20955;BME280;10636;19.390;-99.256;2023-05-08T12:20:12;78223.19;;;25.21;34.85
20955;BME280;10636;19.390;-99.256;2023-05-08T12:22:50;78220.41;;;25.19;34.47
20955;BME280;10636;19.390;-99.256;2023-05-08T12:25:25;78216.28;;;25.16;34.36
20955;BME280;10636;19.390;-99.256;2023-05-08T12:28:08;78225.78;;;25.19;35.09
20955;BME280;10636;19.390;-99.256;2023-05-08T12:30:39;78222.41;;;25.19;34.48
20955;BME280;10636;19.390;-99.256;2023-05-08T12:33:09;78211.94;;;25.09;34.27
20955;BME280;10636;19.390;-99.256;2023-05-08T12:35:40;78225.63;;;25.15;34.38
20955;BME280;10636;19.390;-99.256;2023-05-08T12:38:24;78230.28;;;25.15;34.32
20955;BME280;10636;19.390;-99.256;2023-05-08T12:40:55;78237.41;;;25.08;34.53
20955;BME280;10636;19.390;-99.256;2023-05-08T12:43:31;78245.25;;;25.04;34.54
20955;BME280;10636;19.390;-99.256;2023-05-08T12:46:00;78246.47;;;25.01;34.08
20955;BME280;10636;19.390;-99.256;2023-05-08T12:48:29;78237.66;;;24.98;33.89
20955;BME280;10636;19.390;-99.256;2023-05-08T12:51:02;78239.63;;;24.98;33.67
20955;BME280;10636;19.390;-99.256;2023-05-08T12:53:31;78242.94;;;24.96;34.35
20955;BME280;10636;19.390;-99.256;2023-05-08T12:56:03;78244.81;;;24.94;33.98
20955;BME280;10636;19.390;-99.256;2023-05-08T12:58:33;78246.06;;;24.91;33.94
20955;BME280;10636;19.390;-99.256;2023-05-08T13:01:06;78246.06;;;24.91;34.41
20955;BME280;10636;19.390;-99.256;2023-05-08T13:03:35;78244.56;;;24.88;34.13
20955;BME280;10636;19.390;-99.256;2023-05-08T13:06:04;78252.63;;;24.88;34.34
20955;BME280;10636;19.390;-99.256;2023-05-08T13:08:33;78249.88;;;24.86;34.45
20955;BME280;10636;19.390;-99.256;2023-05-08T13:11:04;78260.53;;;24.84;34.49
20955;BME280;10636;19.390;-99.256;2023-05-08T13:13:34;78257.47;;;24.75;34.30
20955;BME280;10636;19.390;-99.256;2023-05-08T13:16:04;78273.94;;;24.84;34.23
20955;BME280;10636;19.390;-99.256;2023-05-08T13:18:33;78267.41;;;24.73;34.19
20955;BME280;10636;19.390;-99.256;2023-05-08T13:21:03;78276.50;;;24.82;34.20
20955;BME280;10636;19.390;-99.256;2023-05-08T13:23:31;78279.28;;;24.84;33.88